Main page
METAR-TAF:

METAR-TAF

Airports :

Castres–Mazamet Airport

Castres, France

latitude: 43-33-25N, longitude: 2-17-21E, elevation: 239 m

Current weather observation

The report was made 19 minutes ago, at 03:00 UTC
Wind 26 kt from the East/Southeast with gusts up to 41 kt
Temperature 10°C
Humidity 66%
Pressure 1020 hPa
Visibility 10 km or more
no clouds below 1500 m and no cumulonimbus

METAR: LFCK 180300Z AUTO 12026G41KT CAVOK 10/04 Q1020

Time: 04:19 (03:19 UTC)

Forecast

The report was made 10 hours and 19 minutes ago, at 17:00 UTC
Forecast valid from 17 at 18 UTC to 18 at 03 UTC
Wind 26 kt from the East/Southeast
Visibility 10 km or more
no clouds below 1500 m and no cumulonimbus
Temporary
from 17 at 18 UTC to 18 at 03 UTC
Wind 28 kt from the East/Southeast with gusts up to 40 kt

TAF: LFCK 171700Z 1718/1803 12026KT CAVOK TEMPO 1718/1803 12028G40KT

Weather observations and forecasts of more than 4000 airports (METAR and TAF reports).

The available stations are represented by yellow and red dots on the map.

Hover mouse over dot to see the name of the station.

Then click to see weather observations and forecasts.

To change the map : click on the green buttons with a black cross to zoom in, on the green button with a dash to zoom out, or on the green arrows for adjacent maps.


METAR-TAF: